Time;durP1;ratioP1;P1;durP2;ratioP2;P2;SDS_P1;SDS_P2;PMS_P1;PMS_P2;Temp;Humidity;BMP_temperature;BMP_pressure;BME280_temperature;BME280_humidity;BME280_pressure;Samples;Min_cycle;Max_cycle;Signal;HPM_P1;HPM_P2
2022/12/30 00:00:08;;;;;;;14.35;3.80;;;;;;;6.13;100.00;100828.75;5010329;28;20061;-74
2022/12/30 00:02:35;;;;;;;14.50;3.67;;;;;;;6.10;100.00;100824.63;5017233;28;20040;-73
2022/12/30 00:05:00;;;;;;;15.82;3.55;;;;;;;6.10;100.00;100821.94;5020920;28;20116;-73
2022/12/30 00:07:26;;;;;;;15.98;5.68;;;;;;;6.10;100.00;100824.63;5012360;28;20120;-74
2022/12/30 00:09:53;;;;;;;15.65;5.47;;;;;;;6.04;100.00;100822.72;5012598;28;20030;-74
2022/12/30 00:34:18;;;;;;;13.95;3.65;;;;;;;5.98;100.00;100856.56;5017776;28;20044;-76
2022/12/30 00:36:46;;;;;;;19.83;3.70;;;;;;;5.95;100.00;100859.63;5012023;28;20103;-74
2022/12/30 00:39:12;;;;;;;14.45;3.78;;;;;;;5.96;100.00;100857.75;5012543;28;20061;-75
2022/12/30 00:44:21;;;;;;;17.08;3.70;;;;;;;5.96;100.00;100852.38;5012364;28;20209;-77
2022/12/30 00:46:46;;;;;;;16.73;4.05;;;;;;;5.94;100.00;100854.44;5012042;28;20466;-72
2022/12/30 00:57:25;;;;;;;20.00;4.28;;;;;;;5.90;100.00;100853.16;5020563;28;20100;-74
2022/12/30 00:59:50;;;;;;;20.52;4.35;;;;;;;5.85;100.00;100846.50;5011960;28;20057;-73
2022/12/30 01:02:15;;;;;;;15.57;4.20;;;;;;;5.88;100.00;100852.53;5008062;28;20092;-73
2022/12/30 01:04:41;;;;;;;17.33;4.50;;;;;;;5.88;100.00;100860.59;5010927;28;20029;-75
2022/12/30 01:07:06;;;;;;;17.73;4.00;;;;;;;5.83;100.00;100853.94;5026567;28;20429;-73
2022/12/30 01:09:34;;;;;;;20.80;4.28;;;;;;;5.85;100.00;100867.97;5011605;28;20084;-74
2022/12/30 01:12:09;;;;;;;17.85;4.03;;;;;;;5.82;100.00;100865.69;5025502;28;20057;-76
2022/12/30 01:14:34;;;;;;;18.92;3.90;;;;;;;5.84;100.00;100863.66;5016422;28;20029;-76
2022/12/30 01:17:00;;;;;;;19.40;4.28;;;;;;;5.80;100.00;100870.44;5025778;28;20034;-75
2022/12/30 01:19:25;;;;;;;20.92;4.53;;;;;;;5.80;100.00;100861.56;5019578;28;20044;-77
2022/12/30 01:21:51;;;;;;;20.45;4.60;;;;;;;5.78;100.00;100861.75;5015497;28;20034;-76
2022/12/30 01:24:16;;;;;;;18.73;4.63;;;;;;;5.76;100.00;100862.97;5030806;28;20033;-78
2022/12/30 01:26:41;;;;;;;19.92;4.05;;;;;;;5.78;100.00;100864.44;5030863;28;20107;-76
2022/12/30 01:29:06;;;;;;;16.42;4.18;;;;;;;5.76;100.00;100869.16;5041244;28;20567;-74
2022/12/30 01:31:32;;;;;;;13.90;3.60;;;;;;;5.75;100.00;100872.88;5016345;28;20409;-75
2022/12/30 01:33:57;;;;;;;17.60;4.00;;;;;;;5.75;100.00;100872.88;5028506;28;20029;-76
2022/12/30 01:36:22;;;;;;;14.18;4.05;;;;;;;5.75;100.00;100872.03;5024282;28;20032;-77
2022/12/30 01:38:48;;;;;;;18.92;4.32;;;;;;;5.74;100.00;100881.13;5024911;28;20038;-77
2022/12/30 01:41:13;;;;;;;15.60;4.13;;;;;;;5.75;100.00;100883.63;5015461;28;20449;-74
2022/12/30 01:43:44;;;;;;;17.77;4.22;;;;;;;5.71;100.00;100893.06;5014655;28;20058;-75
2022/12/30 01:46:15;;;;;;;23.02;4.40;;;;;;;5.71;100.00;100885.03;5032938;28;20036;-74
2022/12/30 01:48:40;;;;;;;18.13;4.55;;;;;;;5.67;100.00;100881.03;5013805;28;20033;-76
2022/12/30 01:51:26;;;;;;;18.50;3.60;;;;;;;5.72;100.00;100889.34;5017699;28;20053;-73
2022/12/30 01:53:54;;;;;;;17.02;4.20;;;;;;;5.71;100.00;100905.66;5014553;28;20038;-74
2022/12/30 01:56:25;;;;;;;16.95;4.32;;;;;;;5.72;100.00;100899.25;5016686;28;20413;-73
2022/12/30 01:58:55;;;;;;;16.90;4.53;;;;;;;5.68;100.00;100896.97;5027849;28;20490;-76
2022/12/30 02:01:21;;;;;;;18.10;4.10;;;;;;;5.68;100.00;100907.69;5011839;28;20108;-74
2022/12/30 02:03:56;;;;;;;22.30;4.00;;;;;;;5.66;100.00;100907.06;5030762;28;20034;-73
2022/12/30 02:06:27;;;;;;;18.35;4.05;;;;;;;5.66;100.00;100911.59;5015651;28;20088;-75
2022/12/30 02:08:53;;;;;;;15.25;4.07;;;;;;;5.61;100.00;100898.75;5014230;28;20091;-77
2022/12/30 02:11:18;;;;;;;20.45;3.65;;;;;;;5.68;100.00;100894.28;5028746;28;20100;-75
2022/12/30 02:13:44;;;;;;;15.70;4.05;;;;;;;5.62;100.00;100899.59;5026332;28;20453;-74
2022/12/30 02:16:26;;;;;;;17.77;4.28;;;;;;;5.66;100.00;100892.78;5015207;28;20535;-75
2022/12/30 02:19:10;;;;;;;16.77;4.43;;;;;;;5.63;100.00;100885.13;5025387;28;20040;-76
2022/12/30 02:22:08;;;;;;;16.77;4.15;;;;;;;5.64;100.00;100876.06;5015115;28;20030;-78
2022/12/30 02:25:03;;;;;;;13.75;3.90;;;;;;;5.66;100.00;100876.69;5039316;28;20045;-73
2022/12/30 02:27:47;;;;;;;15.55;3.90;;;;;;;5.66;100.00;100876.69;5013418;28;20100;-74
2022/12/30 02:30:31;;;;;;;17.65;3.90;;;;;;;5.65;100.00;100872.38;5022403;28;20042;-73
2022/12/30 02:33:05;;;;;;;19.95;3.78;;;;;;;5.62;100.00;100853.97;5020491;28;20087;-77
2022/12/30 02:35:54;;;;;;;14.70;3.78;;;;;;;5.64;100.00;100858.09;5014003;28;20104;-74
2022/12/30 02:38:35;;;;;;;17.67;3.63;;;;;;;5.59;100.00;100857.03;5028402;28;20120;-75
2022/12/30 02:47:06;;;;;;;14.52;3.38;;;;;;;5.55;100.00;100850.38;5013346;28;20536;-74
2022/12/30 02:49:35;;;;;;;16.75;4.05;;;;;;;5.50;100.00;100849.09;5032416;28;20087;-72
2022/12/30 02:52:14;;;;;;;17.08;3.97;;;;;;;5.48;100.00;100848.47;5025915;28;20477;-76
2022/12/30 02:54:41;;;;;;;20.80;4.43;;;;;;;5.45;100.00;100840.78;5014249;28;20489;-77
2022/12/30 02:57:25;;;;;;;19.05;3.67;;;;;;;5.46;100.00;100834.38;5024662;28;20105;-73
2022/12/30 03:05:51;;;;;;;15.68;3.60;;;;;;;5.28;100.00;100828.63;5033690;28;20155;-75
2022/12/30 03:08:29;;;;;;;21.17;4.00;;;;;;;5.27;100.00;100824.31;5032367;28;20029;-74
2022/12/30 03:11:12;;;;;;;14.55;3.30;;;;;;;5.23;100.00;100825.69;5020206;28;20069;-76
2022/12/30 03:13:53;;;;;;;18.73;4.20;;;;;;;5.20;100.00;100820.72;5012095;28;20025;-73
2022/12/30 03:16:29;;;;;;;15.82;3.95;;;;;;;5.17;100.00;100835.31;5011637;28;20042;-74
2022/12/30 03:18:57;;;;;;;20.48;4.70;;;;;;;5.17;100.00;100829.13;5012174;28;20037;-77
2022/12/30 03:21:25;;;;;;;19.45;3.83;;;;;;;5.12;100.00;100824.34;5031428;28;20083;-75
2022/12/30 03:29:29;;;;;;;16.80;4.15;;;;;;;5.05;100.00;100816.22;5013608;28;20045;-75
2022/12/30 03:31:54;;;;;;;16.77;3.88;;;;;;;5.10;100.00;100821.00;5012870;28;20030;-74
2022/12/30 03:34:21;;;;;;;15.27;3.70;;;;;;;5.01;100.00;100812.25;5029615;28;20040;-78
2022/12/30 03:36:50;;;;;;;17.40;4.03;;;;;;;5.03;100.00;100817.41;5014263;28;20052;-72
2022/12/30 03:39:30;;;;;;;16.88;3.50;;;;;;;5.04;100.00;100808.34;5011071;28;20036;-77
2022/12/30 03:41:56;;;;;;;21.80;4.53;;;;;;;4.96;100.00;100806.63;5012627;28;20113;-77
2022/12/30 03:44:23;;;;;;;18.52;4.00;;;;;;;4.99;100.00;100811.59;5012136;28;20478;-75
2022/12/30 03:46:49;;;;;;;18.67;4.07;;;;;;;4.98;100.00;100809.94;5013174;28;20064;-74
2022/12/30 03:49:15;;;;;;;18.27;4.03;;;;;;;4.99;100.00;100813.47;5013506;28;20029;-74
2022/12/30 03:51:40;;;;;;;19.88;4.13;;;;;;;4.92;100.00;100811.53;5012802;28;20034;-74
2022/12/30 03:54:06;;;;;;;18.80;4.07;;;;;;;4.88;100.00;100820.16;5012281;28;20489;-72
2022/12/30 03:56:31;;;;;;;19.02;4.40;;;;;;;4.90;100.00;100815.41;5012232;28;20572;-74
2022/12/30 03:58:56;;;;;;;15.90;4.00;;;;;;;4.87;100.00;100818.47;5013944;28;20038;-76
2022/12/30 04:01:22;;;;;;;20.63;4.70;;;;;;;4.82;100.00;100818.22;5010081;28;20243;-73
2022/12/30 04:03:47;;;;;;;22.25;4.88;;;;;;;4.79;100.00;100824.78;5017535;28;20025;-74
2022/12/30 04:06:12;;;;;;;18.30;4.20;;;;;;;4.75;100.00;100829.69;5020282;28;20532;-74
2022/12/30 04:08:38;;;;;;;16.70;3.97;;;;;;;4.70;100.00;100832.09;5011522;28;20161;-77
2022/12/30 04:11:03;;;;;;;19.52;4.32;;;;;;;4.71;100.00;100833.78;5012201;28;20049;-76
2022/12/30 04:13:29;;;;;;;15.93;3.83;;;;;;;4.67;100.00;100827.09;5015045;28;20120;-75
2022/12/30 04:15:55;;;;;;;20.00;4.07;;;;;;;4.68;100.00;100828.78;5032523;28;20061;-74
2022/12/30 04:18:20;;;;;;;16.63;4.15;;;;;;;4.63;100.00;100831.16;5019280;28;20065;-74
2022/12/30 04:20:46;;;;;;;17.52;4.78;;;;;;;4.71;100.00;100847.16;5012199;28;20037;-73
2022/12/30 04:23:12;;;;;;;18.40;4.13;;;;;;;4.69;100.00;100851.88;5011876;28;20030;-76
2022/12/30 04:25:37;;;;;;;17.05;4.25;;;;;;;4.67;100.00;100843.19;5012497;28;20041;-74
2022/12/30 04:28:03;;;;;;;18.23;4.18;;;;;;;4.66;100.00;100846.88;5011747;28;20037;-76
2022/12/30 04:30:29;;;;;;;17.05;4.80;;;;;;;4.64;100.00;100837.38;5012473;28;20038;-76
2022/12/30 04:32:54;;;;;;;17.63;4.47;;;;;;;4.63;100.00;100830.34;5017529;28;20491;-73
2022/12/30 04:35:19;;;;;;;18.23;4.43;;;;;;;4.64;100.00;100834.72;5029832;28;20038;-74
2022/12/30 04:37:48;;;;;;;18.80;4.22;;;;;;;4.65;100.00;100822.94;5023564;28;20038;-74
2022/12/30 04:40:13;;;;;;;22.00;3.83;;;;;;;4.60;100.00;100824.34;5020548;28;20602;-74
2022/12/30 04:42:38;;;;;;;22.23;4.13;;;;;;;4.58;100.00;100829.06;5021479;28;20033;-76
2022/12/30 04:45:04;;;;;;;19.58;4.80;;;;;;;4.59;100.00;100822.69;5022985;28;20048;-77
2022/12/30 04:47:29;;;;;;;19.33;4.57;;;;;;;4.62;100.00;100829.53;5029015;28;20033;-76
2022/12/30 04:49:55;;;;;;;18.17;4.05;;;;;;;4.58;100.00;100823.69;5029446;28;20026;-75
2022/12/30 04:52:20;;;;;;;20.80;4.60;;;;;;;4.58;100.00;100822.88;5014083;28;20459;-74
2022/12/30 04:54:46;;;;;;;19.08;4.30;;;;;;;4.58;100.00;100825.56;5014521;28;20045;-77
2022/12/30 04:57:11;;;;;;;21.58;4.22;;;;;;;4.56;100.00;100830.25;5030166;28;20037;-72
2022/12/30 04:59:36;;;;;;;18.00;4.47;;;;;;;4.56;100.00;100824.88;5015377;28;20531;-75
2022/12/30 05:02:01;;;;;;;20.42;4.38;;;;;;;4.60;100.00;100816.31;5018484;28;20037;-77
2022/12/30 05:04:27;;;;;;;19.45;4.22;;;;;;;4.54;100.00;100822.41;5023468;28;20058;-73
2022/12/30 05:06:52;;;;;;;18.63;4.63;;;;;;;4.57;100.00;100813.16;5015481;28;20030;-74
2022/12/30 05:09:17;;;;;;;17.90;4.13;;;;;;;4.53;100.00;100814.53;5013167;28;20036;-72
2022/12/30 05:11:43;;;;;;;20.52;4.45;;;;;;;4.51;100.00;100812.03;5024835;28;20038;-73
2022/12/30 05:14:08;;;;;;;19.20;4.60;;;;;;;4.54;100.00;100805.50;5032916;28;20076;-74
2022/12/30 05:16:33;;;;;;;16.13;4.25;;;;;;;4.49;100.00;100803.38;5020260;28;20029;-77
2022/12/30 05:18:59;;;;;;;19.42;4.90;;;;;;;4.52;100.00;100804.84;5032100;28;20033;-73
2022/12/30 05:21:24;;;;;;;20.25;4.05;;;;;;;4.50;100.00;100799.69;5015982;28;20117;-75
2022/12/30 05:26:33;;;;;;;17.83;3.92;;;;;;;4.50;100.00;100802.38;5015783;28;20040;-76
2022/12/30 05:28:59;;;;;;;15.00;4.18;;;;;;;4.48;100.00;100795.53;5014204;28;20511;-74
2022/12/30 05:31:24;;;;;;;17.88;4.30;;;;;;;4.48;100.00;100792.84;5026521;28;20037;-73
2022/12/30 05:33:49;;;;;;;21.95;4.60;;;;;;;4.46;100.00;100800.25;5016833;28;20033;-74
2022/12/30 05:36:15;;;;;;;21.88;4.38;;;;;;;4.49;100.00;100807.91;5012655;28;20042;-76
2022/12/30 05:38:40;;;;;;;26.08;4.35;;;;;;;4.52;100.00;100807.53;5014820;28;20034;-77
2022/12/30 05:41:08;;;;;;;17.05;4.35;;;;;;;4.49;100.00;100807.91;5014923;28;20038;-73
2022/12/30 05:43:33;;;;;;;20.23;4.43;;;;;;;4.53;100.00;100809.19;5013978;28;20026;-74
2022/12/30 05:45:58;;;;;;;17.73;4.30;;;;;;;4.52;100.00;100803.00;5014215;28;20036;-73
2022/12/30 05:48:24;;;;;;;24.65;4.75;;;;;;;4.64;100.00;100798.00;5017875;28;20032;-74
2022/12/30 05:50:50;;;;;;;17.25;4.35;;;;;;;4.55;100.00;100796.44;5026212;28;20480;-72
2022/12/30 05:53:16;;;;;;;17.00;3.72;;;;;;;4.60;100.00;100794.03;5033480;28;20037;-74
2022/12/30 05:55:41;;;;;;;19.15;4.05;;;;;;;4.59;100.00;100801.25;5034754;28;20108;-73
2022/12/30 05:58:07;;;;;;;18.48;4.47;;;;;;;4.58;100.00;100806.78;5032597;28;20044;-74
2022/12/30 06:00:32;;;;;;;17.67;4.15;;;;;;;4.59;100.00;100800.41;5030535;28;20111;-74
2022/12/30 06:02:58;;;;;;;16.27;4.35;;;;;;;4.61;100.00;100801.88;5031843;28;20034;-76
2022/12/30 06:05:23;;;;;;;20.38;4.43;;;;;;;4.59;100.00;100803.94;5033239;28;20034;-75
2022/12/30 06:07:49;;;;;;;20.98;4.63;;;;;;;4.63;100.00;100795.50;5034523;28;20064;-75
2022/12/30 06:10:15;;;;;;;21.33;4.25;;;;;;;4.64;100.00;100792.63;5031639;28;20067;-77
2022/12/30 06:12:40;;;;;;;17.65;4.40;;;;;;;4.67;100.00;100788.75;5034705;28;20025;-77
2022/12/30 06:15:06;;;;;;;20.67;4.55;;;;;;;4.64;100.00;100783.78;5033330;28;20484;-76
2022/12/30 06:17:31;;;;;;;16.50;4.05;;;;;;;4.66;100.00;100777.19;5034053;28;20456;-72
2022/12/30 06:19:57;;;;;;;20.00;4.57;;;;;;;4.70;100.00;100777.66;5034902;28;20112;-74
2022/12/30 06:22:22;;;;;;;18.67;4.75;;;;;;;4.71;100.00;100774.78;5031830;28;20037;-76
2022/12/30 06:24:47;;;;;;;19.75;4.13;;;;;;;4.73;100.00;100766.56;5030205;28;20061;-76
2022/12/30 06:27:13;;;;;;;18.15;4.03;;;;;;;4.68;100.00;100764.44;5028391;28;20032;-76
2022/12/30 06:29:38;;;;;;;18.48;4.10;;;;;;;4.68;100.00;100759.09;5013313;28;20117;-72
2022/12/30 06:32:04;;;;;;;17.92;4.10;;;;;;;4.67;100.00;100768.13;5013670;28;20059;-76
2022/12/30 06:34:29;;;;;;;13.02;3.33;;;;;;;4.68;100.00;100760.91;5013697;28;20389;-77
2022/12/30 06:36:55;;;;;;;11.80;3.47;;;;;;;4.68;100.00;100763.59;5012548;28;20037;-73
2022/12/30 06:39:20;;;;;;;17.27;4.10;;;;;;;4.71;100.00;100764.06;5023335;28;20498;-74
2022/12/30 06:41:45;;;;;;;18.95;3.85;;;;;;;4.70;100.00;100754.34;5031771;28;20410;-74
2022/12/30 06:44:11;;;;;;;14.55;4.32;;;;;;;4.73;100.00;100748.63;5021959;28;20370;-76
2022/12/30 06:46:36;;;;;;;16.48;3.70;;;;;;;4.72;100.00;100748.81;5016339;28;20044;-76
2022/12/30 06:49:01;;;;;;;16.63;3.80;;;;;;;4.71;100.00;100736.41;5026369;28;20473;-73
2022/12/30 06:51:27;;;;;;;14.20;3.78;;;;;;;4.71;100.00;100734.59;5012646;28;20566;-73
2022/12/30 06:53:52;;;;;;;19.73;4.18;;;;;;;4.72;100.00;100730.88;5011392;28;20397;-76
2022/12/30 06:56:18;;;;;;;13.60;3.67;;;;;;;4.74;100.00;100728.84;5027423;28;20130;-74
2022/12/30 06:58:43;;;;;;;15.38;3.65;;;;;;;4.73;100.00;100711.09;5013178;28;20034;-76
2022/12/30 07:01:08;;;;;;;18.75;4.50;;;;;;;4.73;100.00;100708.41;5016770;28;20045;-75
2022/12/30 07:03:34;;;;;;;18.67;4.53;;;;;;;4.77;100.00;100707.00;5030230;28;20037;-73
2022/12/30 07:06:01;;;;;;;18.00;4.80;;;;;;;4.77;100.00;100700.81;5016086;28;20056;-78
2022/12/30 07:08:26;;;;;;;14.25;3.97;;;;;;;4.83;100.00;100693.84;5012058;28;20102;-76
2022/12/30 07:10:54;;;;;;;15.75;3.78;;;;;;;4.82;100.00;100695.72;5011767;28;20477;-74
2022/12/30 07:13:19;;;;;;;16.13;4.00;;;;;;;4.81;100.00;100694.06;5012623;28;20026;-75
2022/12/30 07:15:45;;;;;;;17.02;4.22;;;;;;;4.82;100.00;100687.69;5011283;28;20040;-74
2022/12/30 07:18:10;;;;;;;15.43;3.40;;;;;;;4.84;100.00;100682.13;5014686;28;20438;-76
2022/12/30 07:20:36;;;;;;;17.45;4.03;;;;;;;4.83;100.00;100685.81;5014038;28;20041;-73
2022/12/30 07:23:01;;;;;;;13.77;4.05;;;;;;;4.84;100.00;100693.66;5011661;28;20041;-75
2022/12/30 07:25:26;;;;;;;12.88;3.63;;;;;;;4.85;100.00;100679.25;5011130;28;20121;-74
2022/12/30 07:28:04;;;;;;;12.90;3.85;;;;;;;4.88;100.00;100675.38;5012892;28;20062;-73
2022/12/30 07:30:31;;;;;;;11.35;3.30;;;;;;;4.88;100.00;100678.03;5010957;28;20030;-75
2022/12/30 07:33:21;;;;;;;14.32;3.78;;;;;;;4.92;100.00;100669.44;5021412;28;20034;-80
2022/12/30 07:35:47;;;;;;;15.23;3.80;;;;;;;4.92;100.00;100663.22;5012070;28;20079;-73
2022/12/30 07:38:12;;;;;;;14.80;3.58;;;;;;;4.96;100.00;100653.75;5012201;28;20117;-76
2022/12/30 07:40:38;;;;;;;10.68;3.53;;;;;;;4.99;100.00;100648.00;5012365;28;20022;-75
2022/12/30 07:43:03;;;;;;;15.63;3.53;;;;;;;5.01;100.00;100656.69;5010588;28;20033;-75
2022/12/30 07:45:29;;;;;;;11.55;3.42;;;;;;;5.04;100.00;100652.81;5022039;28;20037;-76
2022/12/30 07:47:57;;;;;;;15.88;3.47;;;;;;;5.07;100.00;100644.38;5012949;28;20033;-77
2022/12/30 07:50:23;;;;;;;11.70;2.92;;;;;;;5.09;100.00;100631.59;5013243;28;20034;-75
2022/12/30 07:52:48;;;;;;;14.43;3.10;;;;;;;5.12;100.00;100623.19;5012301;28;20040;-75
2022/12/30 07:55:14;;;;;;;11.40;3.45;;;;;;;5.18;100.00;100629.59;5013118;28;20076;-74
2022/12/30 07:57:39;;;;;;;6.82;3.10;;;;;;;5.24;100.00;100618.06;5012895;28;20028;-76
2022/12/30 08:00:05;;;;;;;10.85;3.22;;;;;;;5.24;100.00;100610.88;5012644;28;20101;-75
2022/12/30 08:02:30;;;;;;;11.55;3.00;;;;;;;5.23;100.00;100609.22;5010079;28;20496;-75
2022/12/30 08:04:55;;;;;;;12.27;3.40;;;;;;;5.32;100.00;100609.91;5012840;28;20496;-73
2022/12/30 08:07:22;;;;;;;13.30;3.33;;;;;;;5.31;100.00;100597.50;5010953;28;20034;-79
2022/12/30 08:09:47;;;;;;;9.73;3.15;;;;;;;5.35;100.00;100598.78;5011010;28;20032;-73
2022/12/30 08:12:12;;;;;;;11.90;3.45;;;;;;;5.42;100.00;100598.78;5012405;28;20034;-73
2022/12/30 08:14:38;;;;;;;12.77;3.20;;;;;;;5.42;100.00;100599.66;5012585;28;20105;-73
2022/12/30 08:17:03;;;;;;;11.00;3.00;;;;;;;5.46;100.00;100602.75;5012706;28;20507;-74
2022/12/30 08:19:29;;;;;;;11.88;3.00;;;;;;;5.52;100.00;100587.72;5012427;28;20030;-73
2022/12/30 08:21:54;;;;;;;14.35;3.25;;;;;;;5.52;100.00;100580.47;5011978;28;20069;-74
2022/12/30 08:24:19;;;;;;;14.27;2.90;;;;;;;5.55;100.00;100579.28;5012510;28;20053;-73
2022/12/30 08:26:44;;;;;;;10.48;2.90;;;;;;;5.59;100.00;100577.84;5011545;28;20048;-74
2022/12/30 08:29:10;;;;;;;11.45;2.90;;;;;;;5.64;100.00;100592.31;5012597;28;20038;-74
2022/12/30 08:31:35;;;;;;;12.20;3.22;;;;;;;5.72;100.00;100585.13;5015018;28;20507;-73
2022/12/30 08:34:01;;;;;;;11.27;2.90;;;;;;;5.76;100.00;100573.78;5032365;28;20029;-72
2022/12/30 08:36:27;;;;;;;13.32;3.47;;;;;;;5.77;100.00;100572.78;5031986;28;20477;-71
2022/12/30 08:38:58;;;;;;;8.95;2.80;;;;;;;5.80;100.00;100569.69;5032255;28;20037;-72
2022/12/30 08:41:29;;;;;;;14.00;3.40;;;;;;;5.80;100.00;100558.94;5027399;28;20045;-72
2022/12/30 08:43:56;;;;;;;12.43;3.35;;;;;;;5.85;100.00;100564.53;5012418;28;20081;-78
2022/12/30 08:46:23;;;;;;;8.02;2.67;;;;;;;5.85;100.00;100561.03;5011672;28;20037;-75
2022/12/30 08:48:48;;;;;;;10.38;2.92;;;;;;;5.86;100.00;100551.94;5012499;28;20026;-76
2022/12/30 08:51:14;;;;;;;13.63;2.83;;;;;;;5.91;100.00;100544.09;5011826;28;20474;-75
2022/12/30 08:53:39;;;;;;;10.73;3.20;;;;;;;5.92;100.00;100540.41;5010825;28;20076;-76
2022/12/30 08:56:09;;;;;;;8.73;2.83;;;;;;;5.96;100.00;100540.81;5012353;28;20507;-75
2022/12/30 08:58:35;;;;;;;10.45;2.50;;;;;;;5.98;100.00;100533.44;5012134;28;20535;-72
2022/12/30 09:01:14;;;;;;;9.93;2.70;;;;;;;6.02;100.00;100530.13;5008994;28;20133;-73
2022/12/30 09:03:43;;;;;;;8.55;2.80;;;;;;;6.03;100.00;100528.25;5012067;28;20080;-72
2022/12/30 09:06:11;;;;;;;7.82;2.80;;;;;;;6.06;100.00;100522.47;5012326;28;20103;-70
2022/12/30 09:08:37;;;;;;;8.35;2.72;;;;;;;6.11;100.00;100521.88;5010690;28;20041;-70
2022/12/30 09:11:12;;;;;;;7.05;2.42;;;;;;;6.11;100.00;100503.88;5010246;28;20508;-72
2022/12/30 09:13:39;;;;;;;9.90;3.00;;;;;;;6.15;100.00;100505.13;5012007;28;20030;-73
2022/12/30 09:16:06;;;;;;;9.00;2.55;;;;;;;6.19;100.00;100506.41;5011633;28;20521;-72
2022/12/30 09:18:32;;;;;;;6.18;2.35;;;;;;;6.21;100.00;100501.63;5011853;28;20034;-77
2022/12/30 09:20:58;;;;;;;8.20;2.85;;;;;;;6.26;100.00;100505.56;5011963;28;20441;-74
2022/12/30 09:23:23;;;;;;;6.75;2.40;;;;;;;6.27;100.00;100493.81;5025826;28;20160;-75
2022/12/30 09:25:49;;;;;;;8.63;2.20;;;;;;;6.30;100.00;100504.13;5032246;28;20037;-76
2022/12/30 09:28:14;;;;;;;7.38;2.30;;;;;;;6.34;100.00;100499.97;5031619;28;20041;-78
2022/12/30 09:30:40;;;;;;;8.02;2.20;;;;;;;6.38;100.00;100493.19;5031121;28;20052;-77
2022/12/30 09:33:05;;;;;;;10.73;2.28;;;;;;;6.43;100.00;100492.56;5015012;28;20117;-76
2022/12/30 09:35:31;;;;;;;5.75;2.25;;;;;;;6.46;100.00;100486.75;5014382;28;20389;-74
2022/12/30 09:37:56;;;;;;;6.65;2.03;;;;;;;6.50;100.00;100479.94;5028645;28;20037;-77
2022/12/30 09:40:41;;;;;;;6.07;1.92;;;;;;;6.56;100.00;100471.06;5032290;28;20036;-78
2022/12/30 09:43:22;;;;;;;7.55;1.92;;;;;;;6.59;100.00;100480.56;5022223;28;20069;-78
2022/12/30 09:45:47;;;;;;;6.80;1.80;;;;;;;6.62;100.00;100469.41;5015595;28;20147;-78
2022/12/30 09:48:21;;;;;;;7.30;2.00;;;;;;;6.62;100.00;100459.47;5015337;28;20462;-78
2022/12/30 09:50:55;;;;;;;4.97;1.98;;;;;;;6.67;100.00;100450.75;5015236;28;20037;-78
2022/12/30 09:53:49;;;;;;;11.68;2.38;;;;;;;6.72;100.00;100457.19;5014736;28;20041;-77
2022/12/30 09:56:29;;;;;;;9.73;2.55;;;;;;;6.73;100.00;100448.09;5015271;28;20061;-78
2022/12/30 09:58:58;;;;;;;9.77;2.30;;;;;;;6.77;100.00;100443.09;5013392;28;20048;-77
2022/12/30 10:01:30;;;;;;;5.65;2.42;;;;;;;6.79;100.00;100442.91;5012874;28;20046;-78
2022/12/30 10:03:58;;;;;;;9.15;2.45;;;;;;;6.83;100.00;100425.31;5022071;28;20061;-77
2022/12/30 10:09:35;;;;;;;6.00;2.22;;;;;;;6.89;100.00;100419.91;5028363;28;20121;-75
2022/12/30 10:12:26;;;;;;;7.32;2.38;;;;;;;6.91;100.00;100420.53;5015240;28;20026;-74
2022/12/30 10:15:09;;;;;;;6.28;2.30;;;;;;;6.96;100.00;100419.06;5029883;28;20024;-75
2022/12/30 10:18:05;;;;;;;6.97;2.50;;;;;;;6.98;100.00;100398.97;5013730;28;20029;-75
2022/12/30 10:20:52;;;;;;;8.45;2.45;;;;;;;7.03;100.00;100379.50;5014628;28;20037;-74
2022/12/30 10:23:44;;;;;;;6.93;2.13;;;;;;;7.27;100.00;100370.69;5013944;28;20034;-75
2022/12/30 10:26:40;;;;;;;7.65;2.05;;;;;;;7.31;100.00;100349.56;5013118;28;20030;-74
2022/12/30 10:29:15;;;;;;;7.85;2.00;;;;;;;7.23;100.00;100350.66;5013759;28;20202;-73
2022/12/30 10:31:44;;;;;;;7.90;2.20;;;;;;;7.20;100.00;100353.78;5013531;28;20113;-74
2022/12/30 10:34:14;;;;;;;7.43;2.20;;;;;;;7.21;100.00;100355.41;5028845;28;20025;-73
2022/12/30 10:36:56;;;;;;;6.78;2.00;;;;;;;7.20;100.00;100348.41;5032594;28;20025;-74
2022/12/30 10:39:25;;;;;;;10.05;2.20;;;;;;;7.20;100.00;100323.31;5034046;28;20060;-73
2022/12/30 10:42:11;;;;;;;8.27;1.90;;;;;;;7.23;100.00;100325.59;5031051;28;20040;-74
2022/12/30 10:44:59;;;;;;;8.82;2.10;;;;;;;7.25;100.00;100318.97;5033495;28;20041;-74
2022/12/30 10:48:07;;;;;;;9.48;2.10;;;;;;;7.27;100.00;100316.88;5032451;28;20044;-74
2022/12/30 10:50:43;;;;;;;10.27;2.20;;;;;;;7.31;100.00;100292.22;5024231;28;20125;-75
2022/12/30 10:53:14;;;;;;;9.23;1.83;;;;;;;7.32;100.00;100285.78;5013216;28;20037;-76
2022/12/30 10:55:44;;;;;;;;;;;;;;;7.38;100.00;100275.00;5024024;28;20044;-76
2022/12/30 10:58:16;;;;;;;8.30;1.98;;;;;;;7.37;100.00;100269.84;5033787;28;19951;-75
2022/12/30 11:00:47;;;;;;;9.88;2.10;;;;;;;7.38;100.00;100255.31;5029310;28;20076;-76
2022/12/30 11:03:30;;;;;;;8.75;2.45;;;;;;;7.40;100.00;100250.56;5030733;28;20476;-75
2022/12/30 11:06:15;;;;;;;8.48;2.15;;;;;;;7.42;100.00;100240.38;5028157;28;20420;-76
2022/12/30 11:08:41;;;;;;;10.73;2.30;;;;;;;7.42;100.00;100237.69;5029333;28;20033;-73
2022/12/30 11:14:42;;;;;;;8.32;2.33;;;;;;;7.43;100.00;100232.09;5013847;28;20045;-75
2022/12/30 11:17:16;;;;;;;7.85;2.35;;;;;;;7.50;100.00;100210.47;5013422;28;20048;-74
2022/12/30 11:20:05;;;;;;;7.85;2.25;;;;;;;7.52;100.00;100203.03;5012148;28;20404;-76
2022/12/30 11:22:31;;;;;;;8.73;2.47;;;;;;;7.54;100.00;100203.63;5012678;28;20121;-74
2022/12/30 11:25:13;;;;;;;8.57;2.50;;;;;;;7.55;100.00;100188.28;5013231;28;20152;-75
2022/12/30 11:27:42;;;;;;;11.60;2.50;;;;;;;7.57;100.00;100180.81;5011477;28;20057;-76
2022/12/30 11:33:36;;;;;;;13.40;2.77;;;;;;;7.58;100.00;100153.66;5013219;28;20604;-77
2022/12/30 11:36:18;;;;;;;9.95;3.03;;;;;;;7.60;100.00;100135.41;5011809;28;20299;-76
2022/12/30 11:39:06;;;;;;;10.02;2.83;;;;;;;7.62;100.00;100122.56;5011887;28;20056;-77
2022/12/30 11:41:34;;;;;;;11.95;2.72;;;;;;;7.64;100.00;100122.34;5012873;28;20607;-75
2022/12/30 11:44:23;;;;;;;10.73;2.72;;;;;;;7.68;100.00;100110.06;5012560;28;20034;-76
2022/12/30 11:46:52;;;;;;;9.30;2.28;;;;;;;7.70;100.00;100104.44;5011193;28;20504;-78
2022/12/30 11:49:42;;;;;;;;;;;;;;;;;;;;;
2022/12/30 11:52:29;;;;;;;10.73;2.40;;;;;;;7.79;100.00;100086.97;5032904;28;20055;-74
2022/12/30 11:55:05;;;;;;;8.88;2.72;;;;;;;7.82;100.00;100070.34;5032346;28;20045;-76
2022/12/30 11:57:46;;;;;;;7.75;2.65;;;;;;;7.84;100.00;100051.28;5029563;28;20083;-76
2022/12/30 12:00:12;;;;;;;10.80;3.05;;;;;;;7.85;100.00;100039.44;5010912;28;20557;-76
2022/12/30 12:02:39;;;;;;;13.13;2.75;;;;;;;7.86;100.00;100044.59;5009589;28;20109;-76
2022/12/30 12:05:26;;;;;;;10.10;2.60;;;;;;;7.90;100.00;100037.69;5012942;28;20488;-76
2022/12/30 12:08:04;;;;;;;12.57;2.90;;;;;;;7.93;100.00;100029.16;5011021;28;20048;-74
2022/12/30 12:10:33;;;;;;;10.20;2.58;;;;;;;7.96;100.00;100022.50;5016779;28;20042;-77
2022/12/30 12:13:08;;;;;;;11.45;2.53;;;;;;;8.00;100.00;100012.91;5032296;28;20500;-76
2022/12/30 12:15:49;;;;;;;8.55;2.15;;;;;;;8.04;100.00;100018.66;5032395;28;20025;-75
2022/12/30 12:18:26;;;;;;;9.60;2.33;;;;;;;8.07;100.00;100015.50;5032923;28;20100;-76
2022/12/30 12:21:25;;;;;;;11.32;2.47;;;;;;;8.07;100.00;100007.44;5031004;28;20115;-76
2022/12/30 12:24:13;;;;;;;11.13;2.67;;;;;;;8.05;100.00;99999.59;5020521;28;20030;-75
2022/12/30 12:26:47;;;;;;;9.90;2.70;;;;;;;8.02;100.00;99986.56;5012363;28;20038;-75
2022/12/30 12:29:14;;;;;;;7.80;2.30;;;;;;;8.01;100.00;99979.53;5030911;28;20361;-73
2022/12/30 12:31:48;;;;;;;10.85;2.83;;;;;;;8.00;100.00;99975.19;5020757;28;20389;-75
2022/12/30 12:34:23;;;;;;;11.35;2.67;;;;;;;7.97;100.00;99971.09;5030838;28;20060;-75
2022/12/30 12:36:48;;;;;;;11.38;2.38;;;;;;;7.95;100.00;99946.22;5019190;28;20371;-74